sensor_id;sensor_type;location;lat;lon;timestamp;temperature;humidity
27803;DHT22;15182;48.174;11.562;2024-02-21T00:00:03;10.50;88.70
27803;DHT22;15182;48.174;11.562;2024-02-21T00:02:32;10.60;88.70
27803;DHT22;15182;48.174;11.562;2024-02-21T00:05:00;10.60;88.70
27803;DHT22;15182;48.174;11.562;2024-02-21T00:07:29;10.60;88.60
27803;DHT22;15182;48.174;11.562;2024-02-21T00:09:56;10.70;88.60
27803;DHT22;15182;48.174;11.562;2024-02-21T00:12:24;10.60;88.50
27803;DHT22;15182;48.174;11.562;2024-02-21T00:14:52;10.60;88.60
27803;DHT22;15182;48.174;11.562;2024-02-21T00:17:20;10.60;88.60
27803;DHT22;15182;48.174;11.562;2024-02-21T00:19:49;10.60;88.70
27803;DHT22;15182;48.174;11.562;2024-02-21T00:22:16;10.60;88.70
27803;DHT22;15182;48.174;11.562;2024-02-21T00:24:44;10.60;88.80
27803;DHT22;15182;48.174;11.562;2024-02-21T00:27:12;10.60;88.80
27803;DHT22;15182;48.174;11.562;2024-02-21T00:29:40;10.60;88.80
27803;DHT22;15182;48.174;11.562;2024-02-21T00:32:08;10.70;88.90
27803;DHT22;15182;48.174;11.562;2024-02-21T00:34:36;10.60;88.90
27803;DHT22;15182;48.174;11.562;2024-02-21T00:37:05;10.60;89.00
27803;DHT22;15182;48.174;11.562;2024-02-21T00:39:33;10.60;89.00
27803;DHT22;15182;48.174;11.562;2024-02-21T00:42:01;10.60;89.10
27803;DHT22;15182;48.174;11.562;2024-02-21T00:44:29;10.70;89.20
27803;DHT22;15182;48.174;11.562;2024-02-21T00:46:57;10.70;90.00
27803;DHT22;15182;48.174;11.562;2024-02-21T00:49:24;10.70;89.10
27803;DHT22;15182;48.174;11.562;2024-02-21T00:51:52;10.70;89.20
27803;DHT22;15182;48.174;11.562;2024-02-21T00:54:21;10.70;90.00
27803;DHT22;15182;48.174;11.562;2024-02-21T00:56:50;10.70;89.20
27803;DHT22;15182;48.174;11.562;2024-02-21T00:59:18;10.70;89.10
27803;DHT22;15182;48.174;11.562;2024-02-21T01:01:45;10.80;89.20
27803;DHT22;15182;48.174;11.562;2024-02-21T01:04:13;10.80;89.20
27803;DHT22;15182;48.174;11.562;2024-02-21T01:06:41;10.80;89.20
27803;DHT22;15182;48.174;11.562;2024-02-21T01:09:10;10.80;89.20
27803;DHT22;15182;48.174;11.562;2024-02-21T01:11:40;10.80;90.00
27803;DHT22;15182;48.174;11.562;2024-02-21T01:14:08;10.80;89.10
27803;DHT22;15182;48.174;11.562;2024-02-21T01:16:37;10.80;89.10
27803;DHT22;15182;48.174;11.562;2024-02-21T01:19:05;10.80;89.10
27803;DHT22;15182;48.174;11.562;2024-02-21T01:21:32;10.80;89.00
27803;DHT22;15182;48.174;11.562;2024-02-21T01:24:00;10.90;89.10
27803;DHT22;15182;48.174;11.562;2024-02-21T01:26:28;10.90;89.00
27803;DHT22;15182;48.174;11.562;2024-02-21T01:28:57;10.90;89.10
27803;DHT22;15182;48.174;11.562;2024-02-21T01:31:25;10.80;89.00
27803;DHT22;15182;48.174;11.562;2024-02-21T01:33:53;10.80;88.90
27803;DHT22;15182;48.174;11.562;2024-02-21T01:36:20;10.80;88.90
27803;DHT22;15182;48.174;11.562;2024-02-21T01:38:48;10.80;88.90
27803;DHT22;15182;48.174;11.562;2024-02-21T01:41:16;10.80;88.90
27803;DHT22;15182;48.174;11.562;2024-02-21T01:43:44;10.80;88.90
27803;DHT22;15182;48.174;11.562;2024-02-21T01:46:13;10.80;89.10
27803;DHT22;15182;48.174;11.562;2024-02-21T01:48:41;10.80;89.10
27803;DHT22;15182;48.174;11.562;2024-02-21T01:51:09;10.80;89.10
27803;DHT22;15182;48.174;11.562;2024-02-21T01:53:40;10.80;89.00
27803;DHT22;15182;48.174;11.562;2024-02-21T01:56:10;10.80;89.90
27803;DHT22;15182;48.174;11.562;2024-02-21T01:58:42;10.80;89.00
27803;DHT22;15182;48.174;11.562;2024-02-21T02:01:10;10.80;89.00
27803;DHT22;15182;48.174;11.562;2024-02-21T02:03:39;10.80;89.10
27803;DHT22;15182;48.174;11.562;2024-02-21T02:06:08;10.80;89.10
27803;DHT22;15182;48.174;11.562;2024-02-21T02:08:36;10.80;89.20
27803;DHT22;15182;48.174;11.562;2024-02-21T02:11:04;10.80;89.10
27803;DHT22;15182;48.174;11.562;2024-02-21T02:13:33;10.80;89.00
27803;DHT22;15182;48.174;11.562;2024-02-21T02:16:00;10.80;89.00
27803;DHT22;15182;48.174;11.562;2024-02-21T02:18:28;10.80;89.10
27803;DHT22;15182;48.174;11.562;2024-02-21T02:20:57;10.80;89.00
27803;DHT22;15182;48.174;11.562;2024-02-21T02:23:28;10.80;89.10
27803;DHT22;15182;48.174;11.562;2024-02-21T02:25:58;10.80;89.10
27803;DHT22;15182;48.174;11.562;2024-02-21T02:28:27;10.80;89.20
27803;DHT22;15182;48.174;11.562;2024-02-21T02:30:55;10.80;89.20
27803;DHT22;15182;48.174;11.562;2024-02-21T02:33:22;10.80;89.20
27803;DHT22;15182;48.174;11.562;2024-02-21T02:35:50;10.80;89.20
27803;DHT22;15182;48.174;11.562;2024-02-21T02:38:18;10.80;89.20
27803;DHT22;15182;48.174;11.562;2024-02-21T02:40:47;10.80;89.20
27803;DHT22;15182;48.174;11.562;2024-02-21T02:43:15;10.80;89.20
27803;DHT22;15182;48.174;11.562;2024-02-21T02:45:43;10.80;89.10
27803;DHT22;15182;48.174;11.562;2024-02-21T02:48:10;10.80;89.20
27803;DHT22;15182;48.174;11.562;2024-02-21T02:50:38;10.80;90.00
27803;DHT22;15182;48.174;11.562;2024-02-21T02:53:06;10.80;89.10
27803;DHT22;15182;48.174;11.562;2024-02-21T02:55:34;10.80;89.10
27803;DHT22;15182;48.174;11.562;2024-02-21T02:58:03;10.80;89.10
27803;DHT22;15182;48.174;11.562;2024-02-21T03:00:31;10.80;89.10
27803;DHT22;15182;48.174;11.562;2024-02-21T03:03:02;10.80;89.10
27803;DHT22;15182;48.174;11.562;2024-02-21T03:05:31;10.80;89.00
27803;DHT22;15182;48.174;11.562;2024-02-21T03:07:59;10.80;88.90
27803;DHT22;15182;48.174;11.562;2024-02-21T03:10:26;10.90;89.00
27803;DHT22;15182;48.174;11.562;2024-02-21T03:12:55;10.90;88.90
27803;DHT22;15182;48.174;11.562;2024-02-21T03:15:24;10.80;89.70
27803;DHT22;15182;48.174;11.562;2024-02-21T03:17:52;10.80;88.90
27803;DHT22;15182;48.174;11.562;2024-02-21T03:20:20;10.90;88.90
27803;DHT22;15182;48.174;11.562;2024-02-21T03:22:48;10.80;88.80
27803;DHT22;15182;48.174;11.562;2024-02-21T03:25:15;10.90;88.80
27803;DHT22;15182;48.174;11.562;2024-02-21T03:27:43;10.80;88.80
27803;DHT22;15182;48.174;11.562;2024-02-21T03:30:11;10.80;88.80
27803;DHT22;15182;48.174;11.562;2024-02-21T03:32:41;10.80;88.80
27803;DHT22;15182;48.174;11.562;2024-02-21T03:35:09;10.80;88.80
27803;DHT22;15182;48.174;11.562;2024-02-21T03:37:36;10.80;88.80
27803;DHT22;15182;48.174;11.562;2024-02-21T03:40:07;10.80;88.80
27803;DHT22;15182;48.174;11.562;2024-02-21T03:42:36;10.80;88.80
27803;DHT22;15182;48.174;11.562;2024-02-21T03:45:05;10.80;88.80
27803;DHT22;15182;48.174;11.562;2024-02-21T03:47:34;10.70;88.80
27803;DHT22;15182;48.174;11.562;2024-02-21T03:50:03;10.70;88.80
27803;DHT22;15182;48.174;11.562;2024-02-21T03:52:32;10.70;88.90
27803;DHT22;15182;48.174;11.562;2024-02-21T03:55:00;10.70;89.00
27803;DHT22;15182;48.174;11.562;2024-02-21T03:57:27;10.70;89.00
27803;DHT22;15182;48.174;11.562;2024-02-21T03:59:55;10.70;89.00
27803;DHT22;15182;48.174;11.562;2024-02-21T04:02:23;10.70;89.00
27803;DHT22;15182;48.174;11.562;2024-02-21T04:04:51;10.70;89.00
27803;DHT22;15182;48.174;11.562;2024-02-21T04:07:20;10.70;89.00
27803;DHT22;15182;48.174;11.562;2024-02-21T04:09:47;10.70;88.90
27803;DHT22;15182;48.174;11.562;2024-02-21T04:12:15;10.80;89.00
27803;DHT22;15182;48.174;11.562;2024-02-21T04:14:43;10.80;89.00
27803;DHT22;15182;48.174;11.562;2024-02-21T04:17:11;10.80;89.80
27803;DHT22;15182;48.174;11.562;2024-02-21T04:19:39;10.80;88.80
27803;DHT22;15182;48.174;11.562;2024-02-21T04:22:06;10.80;88.80
27803;DHT22;15182;48.174;11.562;2024-02-21T04:24:35;10.80;88.90
27803;DHT22;15182;48.174;11.562;2024-02-21T04:27:04;10.70;88.80
27803;DHT22;15182;48.174;11.562;2024-02-21T04:29:31;10.70;88.80
27803;DHT22;15182;48.174;11.562;2024-02-21T04:31:59;10.70;88.80
27803;DHT22;15182;48.174;11.562;2024-02-21T04:34:29;10.70;88.80
27803;DHT22;15182;48.174;11.562;2024-02-21T04:36:57;10.60;88.90
27803;DHT22;15182;48.174;11.562;2024-02-21T04:39:25;10.60;88.80
27803;DHT22;15182;48.174;11.562;2024-02-21T04:41:54;10.60;88.90
27803;DHT22;15182;48.174;11.562;2024-02-21T04:44:22;10.60;89.00
27803;DHT22;15182;48.174;11.562;2024-02-21T04:46:50;10.60;89.00
27803;DHT22;15182;48.174;11.562;2024-02-21T04:49:17;10.60;89.00
27803;DHT22;15182;48.174;11.562;2024-02-21T04:51:45;10.60;89.00
27803;DHT22;15182;48.174;11.562;2024-02-21T04:54:13;10.60;89.00
27803;DHT22;15182;48.174;11.562;2024-02-21T04:56:41;10.60;89.00
27803;DHT22;15182;48.174;11.562;2024-02-21T04:59:10;10.60;88.90
27803;DHT22;15182;48.174;11.562;2024-02-21T05:01:38;10.60;88.70
27803;DHT22;15182;48.174;11.562;2024-02-21T05:04:05;10.60;88.60
27803;DHT22;15182;48.174;11.562;2024-02-21T05:06:37;10.60;88.60
27803;DHT22;15182;48.174;11.562;2024-02-21T05:09:06;10.60;88.40
27803;DHT22;15182;48.174;11.562;2024-02-21T05:11:34;10.60;88.50
27803;DHT22;15182;48.174;11.562;2024-02-21T05:14:02;10.60;88.50
27803;DHT22;15182;48.174;11.562;2024-02-21T05:16:32;10.60;88.40
27803;DHT22;15182;48.174;11.562;2024-02-21T05:19:00;10.60;88.40
27803;DHT22;15182;48.174;11.562;2024-02-21T05:21:29;10.60;88.30
27803;DHT22;15182;48.174;11.562;2024-02-21T05:23:57;10.60;88.20
27803;DHT22;15182;48.174;11.562;2024-02-21T05:26:26;10.50;88.20
27803;DHT22;15182;48.174;11.562;2024-02-21T05:28:54;10.60;88.20
27803;DHT22;15182;48.174;11.562;2024-02-21T05:31:22;10.50;88.00
27803;DHT22;15182;48.174;11.562;2024-02-21T05:33:51;10.50;88.20
27803;DHT22;15182;48.174;11.562;2024-02-21T05:36:19;10.50;88.10
27803;DHT22;15182;48.174;11.562;2024-02-21T05:38:47;10.50;88.10
27803;DHT22;15182;48.174;11.562;2024-02-21T05:41:14;10.50;88.10
27803;DHT22;15182;48.174;11.562;2024-02-21T05:43:42;10.50;88.10
27803;DHT22;15182;48.174;11.562;2024-02-21T05:46:10;10.50;88.90
27803;DHT22;15182;48.174;11.562;2024-02-21T05:48:39;10.50;88.10
27803;DHT22;15182;48.174;11.562;2024-02-21T05:51:08;10.50;88.10
27803;DHT22;15182;48.174;11.562;2024-02-21T05:53:36;10.50;88.80
27803;DHT22;15182;48.174;11.562;2024-02-21T05:56:10;10.50;87.90
27803;DHT22;15182;48.174;11.562;2024-02-21T05:58:38;10.50;87.80
27803;DHT22;15182;48.174;11.562;2024-02-21T06:01:06;10.50;87.90
27803;DHT22;15182;48.174;11.562;2024-02-21T06:03:35;10.50;87.80
27803;DHT22;15182;48.174;11.562;2024-02-21T06:06:03;10.50;87.70
27803;DHT22;15182;48.174;11.562;2024-02-21T06:08:33;10.50;87.60
27803;DHT22;15182;48.174;11.562;2024-02-21T06:11:01;10.50;87.40
27803;DHT22;15182;48.174;11.562;2024-02-21T06:13:29;10.50;87.40
27803;DHT22;15182;48.174;11.562;2024-02-21T06:15:56;10.50;87.30
27803;DHT22;15182;48.174;11.562;2024-02-21T06:18:24;10.50;87.20
27803;DHT22;15182;48.174;11.562;2024-02-21T06:20:52;10.50;87.30
27803;DHT22;15182;48.174;11.562;2024-02-21T06:23:20;10.50;87.20
27803;DHT22;15182;48.174;11.562;2024-02-21T06:25:49;10.50;87.20
27803;DHT22;15182;48.174;11.562;2024-02-21T06:28:16;10.50;87.10
27803;DHT22;15182;48.174;11.562;2024-02-21T06:30:44;10.40;87.80
27803;DHT22;15182;48.174;11.562;2024-02-21T06:33:12;10.40;86.90
27803;DHT22;15182;48.174;11.562;2024-02-21T06:35:40;10.40;86.80
27803;DHT22;15182;48.174;11.562;2024-02-21T06:38:09;10.40;86.80
27803;DHT22;15182;48.174;11.562;2024-02-21T06:40:36;10.40;86.70
27803;DHT22;15182;48.174;11.562;2024-02-21T06:43:07;10.40;86.70
27803;DHT22;15182;48.174;11.562;2024-02-21T06:45:35;10.40;86.80
27803;DHT22;15182;48.174;11.562;2024-02-21T06:48:03;10.40;87.00
27803;DHT22;15182;48.174;11.562;2024-02-21T06:50:31;10.40;87.00
27803;DHT22;15182;48.174;11.562;2024-02-21T06:52:59;10.40;86.90
27803;DHT22;15182;48.174;11.562;2024-02-21T06:55:27;10.40;86.80
27803;DHT22;15182;48.174;11.562;2024-02-21T06:57:54;10.40;86.80
27803;DHT22;15182;48.174;11.562;2024-02-21T07:00:24;10.40;87.40
27803;DHT22;15182;48.174;11.562;2024-02-21T07:02:52;10.40;86.50
27803;DHT22;15182;48.174;11.562;2024-02-21T07:05:20;10.40;86.50
27803;DHT22;15182;48.174;11.562;2024-02-21T07:07:49;10.40;86.50
27803;DHT22;15182;48.174;11.562;2024-02-21T07:10:17;10.40;86.50
27803;DHT22;15182;48.174;11.562;2024-02-21T07:12:44;10.40;87.20
27803;DHT22;15182;48.174;11.562;2024-02-21T07:15:12;10.40;86.40
27803;DHT22;15182;48.174;11.562;2024-02-21T07:17:41;10.40;87.10
27803;DHT22;15182;48.174;11.562;2024-02-21T07:20:10;10.50;86.10
27803;DHT22;15182;48.174;11.562;2024-02-21T07:22:38;10.50;86.30
27803;DHT22;15182;48.174;11.562;2024-02-21T07:25:06;10.50;86.20
27803;DHT22;15182;48.174;11.562;2024-02-21T07:27:35;10.50;86.20
27803;DHT22;15182;48.174;11.562;2024-02-21T07:30:04;10.50;86.30
27803;DHT22;15182;48.174;11.562;2024-02-21T07:32:33;10.50;86.10
27803;DHT22;15182;48.174;11.562;2024-02-21T07:35:02;10.60;86.20
27803;DHT22;15182;48.174;11.562;2024-02-21T07:37:31;10.60;86.10
27803;DHT22;15182;48.174;11.562;2024-02-21T07:39:59;10.60;86.00
27803;DHT22;15182;48.174;11.562;2024-02-21T07:42:27;10.60;85.80
27803;DHT22;15182;48.174;11.562;2024-02-21T07:44:55;10.60;85.70
27803;DHT22;15182;48.174;11.562;2024-02-21T07:47:23;10.70;85.70
27803;DHT22;15182;48.174;11.562;2024-02-21T07:49:51;10.70;85.70
27803;DHT22;15182;48.174;11.562;2024-02-21T07:52:20;10.70;85.70
27803;DHT22;15182;48.174;11.562;2024-02-21T07:54:48;10.70;85.60
27803;DHT22;15182;48.174;11.562;2024-02-21T07:57:15;10.70;85.50
27803;DHT22;15182;48.174;11.562;2024-02-21T07:59:43;10.70;85.50
27803;DHT22;15182;48.174;11.562;2024-02-21T08:02:13;10.80;86.30
27803;DHT22;15182;48.174;11.562;2024-02-21T08:04:41;10.80;86.10
27803;DHT22;15182;48.174;11.562;2024-02-21T08:07:09;10.80;85.00
27803;DHT22;15182;48.174;11.562;2024-02-21T08:09:39;10.90;85.00
27803;DHT22;15182;48.174;11.562;2024-02-21T08:12:07;10.90;84.80
27803;DHT22;15182;48.174;11.562;2024-02-21T08:14:35;10.90;84.80
27803;DHT22;15182;48.174;11.562;2024-02-21T08:17:03;10.90;84.70
27803;DHT22;15182;48.174;11.562;2024-02-21T08:19:31;11.00;84.70
27803;DHT22;15182;48.174;11.562;2024-02-21T08:21:59;11.00;84.70
27803;DHT22;15182;48.174;11.562;2024-02-21T08:24:27;11.00;84.60
27803;DHT22;15182;48.174;11.562;2024-02-21T08:26:56;11.00;84.40
27803;DHT22;15182;48.174;11.562;2024-02-21T08:29:24;11.10;84.20
27803;DHT22;15182;48.174;11.562;2024-02-21T08:31:53;11.10;84.10
27803;DHT22;15182;48.174;11.562;2024-02-21T08:34:21;11.20;84.00
27803;DHT22;15182;48.174;11.562;2024-02-21T08:36:48;11.20;84.00
27803;DHT22;15182;48.174;11.562;2024-02-21T08:39:16;11.30;84.10
27803;DHT22;15182;48.174;11.562;2024-02-21T08:41:44;11.40;84.00
27803;DHT22;15182;48.174;11.562;2024-02-21T08:44:13;11.50;84.00
27803;DHT22;15182;48.174;11.562;2024-02-21T08:46:41;11.50;83.80
27803;DHT22;15182;48.174;11.562;2024-02-21T08:49:10;11.60;83.80
27803;DHT22;15182;48.174;11.562;2024-02-21T08:51:38;11.80;84.60
27803;DHT22;15182;48.174;11.562;2024-02-21T08:54:05;11.90;83.60
27803;DHT22;15182;48.174;11.562;2024-02-21T08:56:34;12.00;83.50
27803;DHT22;15182;48.174;11.562;2024-02-21T08:59:02;12.10;83.50
27803;DHT22;15182;48.174;11.562;2024-02-21T09:01:31;12.20;84.20
27803;DHT22;15182;48.174;11.562;2024-02-21T09:04:00;12.30;82.90
27803;DHT22;15182;48.174;11.562;2024-02-21T09:06:29;12.40;82.60
27803;DHT22;15182;48.174;11.562;2024-02-21T09:08:58;12.50;82.60
27803;DHT22;15182;48.174;11.562;2024-02-21T09:11:26;12.60;82.50
27803;DHT22;15182;48.174;11.562;2024-02-21T09:13:54;12.70;82.40
27803;DHT22;15182;48.174;11.562;2024-02-21T09:16:22;12.90;82.10
27803;DHT22;15182;48.174;11.562;2024-02-21T09:18:51;13.00;82.00
27803;DHT22;15182;48.174;11.562;2024-02-21T09:21:19;13.10;81.90
27803;DHT22;15182;48.174;11.562;2024-02-21T09:23:47;13.20;81.70
27803;DHT22;15182;48.174;11.562;2024-02-21T09:26:15;13.30;81.50
27803;DHT22;15182;48.174;11.562;2024-02-21T09:28:43;13.40;81.20
27803;DHT22;15182;48.174;11.562;2024-02-21T09:31:11;13.60;80.90
27803;DHT22;15182;48.174;11.562;2024-02-21T09:33:39;13.60;80.90
27803;DHT22;15182;48.174;11.562;2024-02-21T09:36:09;13.80;80.60
27803;DHT22;15182;48.174;11.562;2024-02-21T09:38:37;13.90;80.40
27803;DHT22;15182;48.174;11.562;2024-02-21T09:41:14;13.90;80.10
27803;DHT22;15182;48.174;11.562;2024-02-21T09:43:44;14.10;79.30
27803;DHT22;15182;48.174;11.562;2024-02-21T09:46:16;14.20;80.00
27803;DHT22;15182;48.174;11.562;2024-02-21T09:48:58;14.30;79.30
27803;DHT22;15182;48.174;11.562;2024-02-21T09:51:34;14.40;78.60
27803;DHT22;15182;48.174;11.562;2024-02-21T09:54:04;14.60;78.60
27803;DHT22;15182;48.174;11.562;2024-02-21T09:56:32;14.70;78.80
27803;DHT22;15182;48.174;11.562;2024-02-21T09:59:01;14.80;78.40
27803;DHT22;15182;48.174;11.562;2024-02-21T10:01:31;14.90;77.90
27803;DHT22;15182;48.174;11.562;2024-02-21T10:03:59;15.10;78.10
27803;DHT22;15182;48.174;11.562;2024-02-21T10:06:28;15.10;77.60
27803;DHT22;15182;48.174;11.562;2024-02-21T10:08:58;15.30;77.40
27803;DHT22;15182;48.174;11.562;2024-02-21T10:11:26;15.30;77.10
27803;DHT22;15182;48.174;11.562;2024-02-21T10:14:03;15.50;76.90
27803;DHT22;15182;48.174;11.562;2024-02-21T10:16:31;15.50;76.00
27803;DHT22;15182;48.174;11.562;2024-02-21T10:18:59;15.60;76.30
27803;DHT22;15182;48.174;11.562;2024-02-21T10:21:27;15.70;76.30
27803;DHT22;15182;48.174;11.562;2024-02-21T10:23:55;15.80;76.10
27803;DHT22;15182;48.174;11.562;2024-02-21T10:26:24;15.80;76.80
27803;DHT22;15182;48.174;11.562;2024-02-21T10:28:52;15.90;75.20
27803;DHT22;15182;48.174;11.562;2024-02-21T10:31:22;16.00;75.40
27803;DHT22;15182;48.174;11.562;2024-02-21T10:33:54;16.10;75.20
27803;DHT22;15182;48.174;11.562;2024-02-21T10:36:23;16.20;74.50
27803;DHT22;15182;48.174;11.562;2024-02-21T10:38:51;16.30;75.10
27803;DHT22;15182;48.174;11.562;2024-02-21T10:41:21;16.40;74.80
27803;DHT22;15182;48.174;11.562;2024-02-21T10:43:52;16.50;74.00
27803;DHT22;15182;48.174;11.562;2024-02-21T10:46:22;16.60;73.60
27803;DHT22;15182;48.174;11.562;2024-02-21T10:49:01;16.70;73.70
27803;DHT22;15182;48.174;11.562;2024-02-21T10:51:33;16.80;72.60
27803;DHT22;15182;48.174;11.562;2024-02-21T10:54:12;16.90;73.20
27803;DHT22;15182;48.174;11.562;2024-02-21T10:56:45;17.00;72.10
27803;DHT22;15182;48.174;11.562;2024-02-21T10:59:15;17.10;72.80
27803;DHT22;15182;48.174;11.562;2024-02-21T11:01:44;17.20;72.20
27803;DHT22;15182;48.174;11.562;2024-02-21T11:04:12;17.30;71.70
27803;DHT22;15182;48.174;11.562;2024-02-21T11:06:41;17.30;71.30
27803;DHT22;15182;48.174;11.562;2024-02-21T11:09:10;17.40;71.30
27803;DHT22;15182;48.174;11.562;2024-02-21T11:11:39;17.40;70.90
27803;DHT22;15182;48.174;11.562;2024-02-21T11:14:08;17.50;71.30
27803;DHT22;15182;48.174;11.562;2024-02-21T11:16:39;17.50;70.90
27803;DHT22;15182;48.174;11.562;2024-02-21T11:19:07;17.60;70.50
27803;DHT22;15182;48.174;11.562;2024-02-21T11:21:37;17.70;70.90
27803;DHT22;15182;48.174;11.562;2024-02-21T11:24:07;17.80;70.70
27803;DHT22;15182;48.174;11.562;2024-02-21T11:26:37;17.90;70.60
27803;DHT22;15182;48.174;11.562;2024-02-21T11:29:05;18.00;70.20
27803;DHT22;15182;48.174;11.562;2024-02-21T11:31:40;18.10;68.90
27803;DHT22;15182;48.174;11.562;2024-02-21T11:34:09;18.10;68.10
27803;DHT22;15182;48.174;11.562;2024-02-21T11:36:46;18.10;68.50
27803;DHT22;15182;48.174;11.562;2024-02-21T11:39:19;18.20;67.10
27803;DHT22;15182;48.174;11.562;2024-02-21T11:41:58;18.20;68.00
27803;DHT22;15182;48.174;11.562;2024-02-21T11:44:30;18.20;67.80
27803;DHT22;15182;48.174;11.562;2024-02-21T11:47:00;18.20;67.40
27803;DHT22;15182;48.174;11.562;2024-02-21T11:49:29;18.30;66.80
27803;DHT22;15182;48.174;11.562;2024-02-21T11:51:58;18.20;66.50
27803;DHT22;15182;48.174;11.562;2024-02-21T11:54:27;18.10;66.00
27803;DHT22;15182;48.174;11.562;2024-02-21T11:56:55;18.10;65.60
27803;DHT22;15182;48.174;11.562;2024-02-21T11:59:22;18.00;65.70
27803;DHT22;15182;48.174;11.562;2024-02-21T12:01:50;17.90;65.20
27803;DHT22;15182;48.174;11.562;2024-02-21T12:04:21;17.80;65.30
27803;DHT22;15182;48.174;11.562;2024-02-21T12:06:50;17.70;64.80
27803;DHT22;15182;48.174;11.562;2024-02-21T12:09:20;17.70;65.40
27803;DHT22;15182;48.174;11.562;2024-02-21T12:11:57;17.70;65.40
27803;DHT22;15182;48.174;11.562;2024-02-21T12:14:27;17.70;64.20
27803;DHT22;15182;48.174;11.562;2024-02-21T12:16:55;17.70;64.90
27803;DHT22;15182;48.174;11.562;2024-02-21T12:19:25;17.80;65.20
27803;DHT22;15182;48.174;11.562;2024-02-21T12:21:54;17.80;64.60
27803;DHT22;15182;48.174;11.562;2024-02-21T12:24:26;17.90;64.50
27803;DHT22;15182;48.174;11.562;2024-02-21T12:26:55;17.90;64.10
27803;DHT22;15182;48.174;11.562;2024-02-21T12:29:24;18.00;64.40
27803;DHT22;15182;48.174;11.562;2024-02-21T12:31:52;18.10;64.60
27803;DHT22;15182;48.174;11.562;2024-02-21T12:34:21;18.20;64.40
27803;DHT22;15182;48.174;11.562;2024-02-21T12:36:51;18.30;64.30
27803;DHT22;15182;48.174;11.562;2024-02-21T12:39:19;18.40;62.90
27803;DHT22;15182;48.174;11.562;2024-02-21T12:41:47;18.50;63.00
27803;DHT22;15182;48.174;11.562;2024-02-21T12:44:15;18.60;62.40
27803;DHT22;15182;48.174;11.562;2024-02-21T12:46:44;18.70;62.00
27803;DHT22;15182;48.174;11.562;2024-02-21T12:49:12;18.70;61.60
27803;DHT22;15182;48.174;11.562;2024-02-21T12:51:40;18.70;61.40
27803;DHT22;15182;48.174;11.562;2024-02-21T12:54:09;18.70;61.30
27803;DHT22;15182;48.174;11.562;2024-02-21T12:56:37;18.60;60.60
27803;DHT22;15182;48.174;11.562;2024-02-21T12:59:06;18.60;60.40
27803;DHT22;15182;48.174;11.562;2024-02-21T13:01:35;18.50;60.30
27803;DHT22;15182;48.174;11.562;2024-02-21T13:04:03;18.40;60.50
27803;DHT22;15182;48.174;11.562;2024-02-21T13:06:31;18.30;60.30
27803;DHT22;15182;48.174;11.562;2024-02-21T13:08:59;18.30;60.20
27803;DHT22;15182;48.174;11.562;2024-02-21T13:11:32;18.20;61.30
27803;DHT22;15182;48.174;11.562;2024-02-21T13:13:59;18.10;60.40
27803;DHT22;15182;48.174;11.562;2024-02-21T13:16:28;18.00;60.90
27803;DHT22;15182;48.174;11.562;2024-02-21T13:18:56;18.00;60.60
27803;DHT22;15182;48.174;11.562;2024-02-21T13:21:23;17.90;60.70
27803;DHT22;15182;48.174;11.562;2024-02-21T13:23:52;17.90;60.60
27803;DHT22;15182;48.174;11.562;2024-02-21T13:26:20;17.90;60.60
27803;DHT22;15182;48.174;11.562;2024-02-21T13:28:49;17.90;60.50
27803;DHT22;15182;48.174;11.562;2024-02-21T13:31:16;17.90;60.00
27803;DHT22;15182;48.174;11.562;2024-02-21T13:33:44;17.90;60.70
27803;DHT22;15182;48.174;11.562;2024-02-21T13:36:12;17.90;60.80
27803;DHT22;15182;48.174;11.562;2024-02-21T13:38:40;17.90;60.40
27803;DHT22;15182;48.174;11.562;2024-02-21T13:41:08;17.90;60.30
27803;DHT22;15182;48.174;11.562;2024-02-21T13:43:35;17.90;60.30
27803;DHT22;15182;48.174;11.562;2024-02-21T13:46:05;17.80;60.60
27803;DHT22;15182;48.174;11.562;2024-02-21T13:48:36;17.80;60.60
27803;DHT22;15182;48.174;11.562;2024-02-21T13:51:04;17.80;60.90
27803;DHT22;15182;48.174;11.562;2024-02-21T13:53:32;17.80;60.30
27803;DHT22;15182;48.174;11.562;2024-02-21T13:56:00;17.80;60.00
27803;DHT22;15182;48.174;11.562;2024-02-21T13:58:28;17.80;60.30
27803;DHT22;15182;48.174;11.562;2024-02-21T14:00:56;17.80;60.00
27803;DHT22;15182;48.174;11.562;2024-02-21T14:03:25;17.70;60.10
27803;DHT22;15182;48.174;11.562;2024-02-21T14:05:53;17.70;60.00
27803;DHT22;15182;48.174;11.562;2024-02-21T14:08:21;17.70;60.10
27803;DHT22;15182;48.174;11.562;2024-02-21T14:10:50;17.60;59.90
27803;DHT22;15182;48.174;11.562;2024-02-21T14:13:18;17.60;60.00
27803;DHT22;15182;48.174;11.562;2024-02-21T14:15:45;17.60;60.10
27803;DHT22;15182;48.174;11.562;2024-02-21T14:18:14;17.50;60.00
27803;DHT22;15182;48.174;11.562;2024-02-21T14:20:44;17.50;60.10
27803;DHT22;15182;48.174;11.562;2024-02-21T14:23:13;17.50;60.10
27803;DHT22;15182;48.174;11.562;2024-02-21T14:25:41;17.40;60.30
27803;DHT22;15182;48.174;11.562;2024-02-21T14:28:08;17.40;60.10
27803;DHT22;15182;48.174;11.562;2024-02-21T14:30:36;17.40;60.60
27803;DHT22;15182;48.174;11.562;2024-02-21T14:33:04;17.30;60.20
27803;DHT22;15182;48.174;11.562;2024-02-21T14:35:34;17.30;60.10
27803;DHT22;15182;48.174;11.562;2024-02-21T14:38:03;17.30;60.30
27803;DHT22;15182;48.174;11.562;2024-02-21T14:40:30;17.30;60.50
27803;DHT22;15182;48.174;11.562;2024-02-21T14:43:00;17.30;60.90
27803;DHT22;15182;48.174;11.562;2024-02-21T14:45:28;17.30;60.70
27803;DHT22;15182;48.174;11.562;2024-02-21T14:47:55;17.30;60.80
27803;DHT22;15182;48.174;11.562;2024-02-21T14:50:23;17.30;60.40
27803;DHT22;15182;48.174;11.562;2024-02-21T14:52:51;17.30;60.40
27803;DHT22;15182;48.174;11.562;2024-02-21T14:55:20;17.30;60.30
27803;DHT22;15182;48.174;11.562;2024-02-21T14:57:49;17.20;61.40
27803;DHT22;15182;48.174;11.562;2024-02-21T15:00:17;17.20;60.40
27803;DHT22;15182;48.174;11.562;2024-02-21T15:02:47;17.20;60.60
27803;DHT22;15182;48.174;11.562;2024-02-21T15:05:16;17.20;60.40
27803;DHT22;15182;48.174;11.562;2024-02-21T15:07:43;17.20;60.50
27803;DHT22;15182;48.174;11.562;2024-02-21T15:10:11;17.20;60.40
27803;DHT22;15182;48.174;11.562;2024-02-21T15:12:40;17.20;60.40
27803;DHT22;15182;48.174;11.562;2024-02-21T15:15:09;17.20;60.40
27803;DHT22;15182;48.174;11.562;2024-02-21T15:17:37;17.20;60.30
27803;DHT22;15182;48.174;11.562;2024-02-21T15:20:06;17.10;60.50
27803;DHT22;15182;48.174;11.562;2024-02-21T15:22:35;17.10;60.50